WetterOnline ( http://www.wetteronline.de )

Wetter aktuell PLZ Bereich 24582

Aktuelles Wetter: Dörnick (28m)

6-stündlich | Neueste Meldungen
Ortszeit Temperatur Wetter
Sa, 23.03. 19:00 7.7° C bedeckt
Sa, 23.03. 13:00 9.9° C bedeckt
Sa, 23.03. 7:00 5.8° C bedeckt
Sa, 23.03. 1:00 7.9° C wolkenlos
Fr, 22.03. 19:00 9.9° C fast wolkenlos
Fr, 22.03. 13:00 9.1° C bedeckt
Fr, 22.03. 7:00 7.3° C bedeckt
Fr, 22.03. 1:00 8.4° C bedeckt
Ortszeit Temperatur Wetter
Sa, 23.03. 23:00 2.9° C bedeckt
Sa, 23.03. 22:40 3.2° C bedeckt
Sa, 23.03. 22:30 3.8° C bedeckt
Sa, 23.03. 22:20 3.8° C bedeckt
Sa, 23.03. 22:10 3.7° C bedeckt
Sa, 23.03. 22:00 4.5° C bedeckt
Sa, 23.03. 21:50 4.5° C bedeckt
Sa, 23.03. 21:30 4.3° C bedeckt
Sa, 23.03. 21:00 5.1° C bedeckt
Sa, 23.03. 20:30 5.6° C bedeckt
Sa, 23.03. 20:00 6.8° C bedeckt
Ortszeit Relative Feuchte Sichtweite
Sa, 23.03. 19:00 66% 30 km
Sa, 23.03. 13:00 82% 6 km
Sa, 23.03. 7:00 97% 1.6 km
Sa, 23.03. 1:00 95% 2.0 km
Fr, 22.03. 19:00 87% 4.7 km
Fr, 22.03. 13:00 91% 4.0 km
Fr, 22.03. 7:00 99% 2.5 km
Fr, 22.03. 1:00 97% 3.9 km
Ortszeit Relative Feuchte Sichtweite
Sa, 23.03. 23:00 89% 17 km
Sa, 23.03. 22:40 89% -
Sa, 23.03. 22:30 87% 18 km
Sa, 23.03. 22:20 87% -
Sa, 23.03. 22:10 86% -
Sa, 23.03. 22:00 83% 20 km
Sa, 23.03. 21:50 83% -
Sa, 23.03. 21:30 83% 24 km
Sa, 23.03. 21:00 76% 26 km
Sa, 23.03. 20:30 73% -
Sa, 23.03. 20:00 67% 30 km
Ortszeit Niederschlagsmenge Niederschlagsart
Sa, 23.03. 19:00 0.1 l/m2 in 12 Std. Regen
Sa, 23.03. 13:00 0.0 l/m2 in 6 Std. -
Sa, 23.03. 7:00 0.0 l/m2 in 12 Std. -
Sa, 23.03. 1:00 0.0 l/m2 in 6 Std. -
Fr, 22.03. 19:00 0.1 l/m2 in 12 Std. -
Fr, 22.03. 13:00 0.1 l/m2 in 6 Std. Sprühregen
Fr, 22.03. 7:00 0.2 l/m2 in 12 Std. Sprühregen
Fr, 22.03. 1:00 0.1 l/m2 in 6 Std. Sprühregen
Ortszeit Niederschlagsmenge Niederschlagsart
Sa, 23.03. 23:00 0.0 l/m2 in 1 Std. -
Sa, 23.03. 22:40 keine Meldung -
Sa, 23.03. 22:30 0.0 l/m2 in 1 Std. -
Sa, 23.03. 22:20 keine Meldung -
Sa, 23.03. 22:10 keine Meldung -
Sa, 23.03. 22:00 0.0 l/m2 in 1 Std. -
Sa, 23.03. 21:50 keine Meldung -
Sa, 23.03. 21:30 0.0 l/m2 in 1 Std. -
Sa, 23.03. 21:00 0.0 l/m2 in 1 Std. -
Sa, 23.03. 20:30 0.0 l/m2 in 1 Std. -
Sa, 23.03. 20:00 0.0 l/m2 in 1 Std. -
Ortszeit Stärke Spitze Richtung
km/h Bft. km/h Grad Sektor
Sa, 23.03. 19:00 14 3 40 290° W
Sa, 23.03. 13:00 17 3 24 260° W
Sa, 23.03. 7:00 14 3 25 270° W
Sa, 23.03. 1:00 7 2 18 160° S
Fr, 22.03. 19:00 4 1 18 110° O
Fr, 22.03. 13:00 13 3 22 190° S
Fr, 22.03. 7:00 4 1 25 70° O
Fr, 22.03. 1:00 11 2 36 230° SW
Ortszeit Stärke Spitze Richtung
km/h Bft. km/h Grad Sektor
Sa, 23.03. 23:00 7 2 14 280° W
Sa, 23.03. 22:40 7 2 - 290° W
Sa, 23.03. 22:30 9 2 15 290° W
Sa, 23.03. 22:20 9 2 - 290° W
Sa, 23.03. 22:10 7 2 - 290° W
Sa, 23.03. 22:00 11 2 14 290° W
Sa, 23.03. 21:50 11 2 - 290° W
Sa, 23.03. 21:30 9 2 15 280° W
Sa, 23.03. 21:00 11 2 18 290° W
Sa, 23.03. 20:30 11 2 18 290° W
Sa, 23.03. 20:00 11 2 22 300° NW
Ortszeit Untergrenze Bedeckung Gattung
total tief tief mittel hoch
Sa, 23.03. 19:00 4800 m 8/8 8/8 - - -
Sa, 23.03. 13:00 450 m 8/8 8/8 - - -
Sa, 23.03. 7:00 90 m 8/8 8/8 - - -
Sa, 23.03. 1:00 10500 m 0/8 0/8 - - -
Fr, 22.03. 19:00 12000 m 1/8 0/8 - - -
Fr, 22.03. 13:00 210 m 8/8 8/8 - - -
Fr, 22.03. 7:00 120 m 8/8 8/8 - - -
Fr, 22.03. 1:00 120 m 8/8 8/8 - - -
Ortszeit Bedeckungsgrad in Achtel und Wolkenuntergrenze
Sa, 23.03. 23:00 8(4500m) 8(6000m) 8(6600m)
Sa, 23.03. 22:40 8(4500m) 8(6000m) 8(8700m)
Sa, 23.03. 22:30 8(4500m) 8(6000m) 8(6600m)
Sa, 23.03. 22:20 8(4500m) 8(6000m) 8(6600m)
Sa, 23.03. 22:10 8(4500m) 8(6000m) 8(6600m)
Sa, 23.03. 22:00 8(4500m) 8(6000m) 8(7200m)
Sa, 23.03. 21:50 8(4500m) 8(6000m) 8(7200m)
Sa, 23.03. 21:30 8(4200m) 8(6000m) 8(6600m)
Sa, 23.03. 21:00 8(4200m) 8(6300m) 8(10500m)
Sa, 23.03. 20:30 8(4500m) 8(5700m) 8(6300m)
Sa, 23.03. 20:00 4(4200m) 8(4800m) 8(5700m)
Ortszeit Luftdruck NN (hPa) Tendenz (hPa in 3 Std.)
Sa, 23.03. 19:00 1030 + 1,5
Sa, 23.03. 13:00 1028 + 1,2
Sa, 23.03. 7:00 1026 + 0,8
Sa, 23.03. 1:00 1025 - 1,8
Fr, 22.03. 19:00 1028 - 1,6
Fr, 22.03. 13:00 1032 - 1,3
Fr, 22.03. 7:00 1034 + 0,9
Fr, 22.03. 1:00 1033 - 0,7
Ortszeit Luftdruck NN (hPa) Tendenz (hPa in 3 Std.)
Sa, 23.03. 23:00 1031 + 0,7
Sa, 23.03. 22:40 1031 keine Meldung
Sa, 23.03. 22:30 1031 + 0,9
Sa, 23.03. 22:20 1031 keine Meldung
Sa, 23.03. 22:10 1031 keine Meldung
Sa, 23.03. 22:00 1031 + 1,1
Sa, 23.03. 21:50 1031 keine Meldung
Sa, 23.03. 21:30 1031 + 1,1
Sa, 23.03. 21:00 1031 + 1,2
Sa, 23.03. 20:30 1030 + 1,3
Sa, 23.03. 20:00 1030 + 1,5
Ortszeit Schneehöhe (cm)
Sa, 23.03. 19:00 0
Sa, 23.03. 13:00 0
Sa, 23.03. 7:00 0
Sa, 23.03. 1:00 0
Fr, 22.03. 19:00 0
Fr, 22.03. 13:00 0
Fr, 22.03. 7:00 0
Fr, 22.03. 1:00 0
Ortszeit Schneehöhe (cm)
Sa, 23.03. 23:00 0
Sa, 23.03. 22:40 0
Sa, 23.03. 22:30 0
Sa, 23.03. 22:20 0
Sa, 23.03. 22:10 0
Sa, 23.03. 22:00 0
Sa, 23.03. 21:50 0
Sa, 23.03. 21:30 0
Sa, 23.03. 21:00 0
Sa, 23.03. 20:30 0
Sa, 23.03. 20:00 0
Link zu dieser Seite / Seite empfehlen

Das Wetter in ...